sensor_id;sensor_type;location;lat;lon;timestamp;temperature;humidity
33255;DHT22;19623;52.482;9.762;2022-12-07T00:01:13;5.00;99.90
33255;DHT22;19623;52.482;9.762;2022-12-07T00:03:41;5.00;99.90
33255;DHT22;19623;52.482;9.762;2022-12-07T00:06:08;4.90;99.90
33255;DHT22;19623;52.482;9.762;2022-12-07T00:08:34;5.00;99.90
33255;DHT22;19623;52.482;9.762;2022-12-07T00:11:08;5.00;99.90
33255;DHT22;19623;52.482;9.762;2022-12-07T00:13:35;5.00;99.90
33255;DHT22;19623;52.482;9.762;2022-12-07T00:16:03;5.00;99.90
33255;DHT22;19623;52.482;9.762;2022-12-07T00:18:29;5.00;99.90
33255;DHT22;19623;52.482;9.762;2022-12-07T00:21:00;5.10;99.90
33255;DHT22;19623;52.482;9.762;2022-12-07T00:23:26;5.10;99.90
33255;DHT22;19623;52.482;9.762;2022-12-07T00:25:51;5.10;99.90
33255;DHT22;19623;52.482;9.762;2022-12-07T00:28:17;5.10;99.90
33255;DHT22;19623;52.482;9.762;2022-12-07T00:30:43;5.10;99.90
33255;DHT22;19623;52.482;9.762;2022-12-07T00:33:08;5.20;99.90
33255;DHT22;19623;52.482;9.762;2022-12-07T00:35:34;5.20;99.90
33255;DHT22;19623;52.482;9.762;2022-12-07T00:37:59;5.10;99.90
33255;DHT22;19623;52.482;9.762;2022-12-07T00:40:25;5.20;99.90
33255;DHT22;19623;52.482;9.762;2022-12-07T00:42:51;5.20;99.90
33255;DHT22;19623;52.482;9.762;2022-12-07T00:45:16;5.20;99.90
33255;DHT22;19623;52.482;9.762;2022-12-07T00:47:42;5.20;99.90
33255;DHT22;19623;52.482;9.762;2022-12-07T00:50:08;5.20;99.90
33255;DHT22;19623;52.482;9.762;2022-12-07T00:52:34;5.20;99.90
33255;DHT22;19623;52.482;9.762;2022-12-07T00:55:00;5.20;99.90
33255;DHT22;19623;52.482;9.762;2022-12-07T00:57:25;5.20;99.90
33255;DHT22;19623;52.482;9.762;2022-12-07T00:59:51;5.20;99.90
33255;DHT22;19623;52.482;9.762;2022-12-07T01:02:21;5.20;99.90
33255;DHT22;19623;52.482;9.762;2022-12-07T01:04:46;5.20;99.90
33255;DHT22;19623;52.482;9.762;2022-12-07T01:07:12;5.20;99.90
33255;DHT22;19623;52.482;9.762;2022-12-07T01:09:38;5.20;99.90
33255;DHT22;19623;52.482;9.762;2022-12-07T01:12:03;5.30;99.90
33255;DHT22;19623;52.482;9.762;2022-12-07T01:14:29;5.30;99.90
33255;DHT22;19623;52.482;9.762;2022-12-07T01:16:55;5.30;99.90
33255;DHT22;19623;52.482;9.762;2022-12-07T01:19:20;5.30;99.90
33255;DHT22;19623;52.482;9.762;2022-12-07T01:21:46;5.20;99.90
33255;DHT22;19623;52.482;9.762;2022-12-07T01:24:12;5.30;99.90
33255;DHT22;19623;52.482;9.762;2022-12-07T01:26:38;5.30;99.90
33255;DHT22;19623;52.482;9.762;2022-12-07T01:29:04;5.30;99.90
33255;DHT22;19623;52.482;9.762;2022-12-07T01:31:30;5.30;99.90
33255;DHT22;19623;52.482;9.762;2022-12-07T01:33:57;5.30;99.90
33255;DHT22;19623;52.482;9.762;2022-12-07T01:36:29;5.30;99.90
33255;DHT22;19623;52.482;9.762;2022-12-07T01:38:57;5.30;99.90
33255;DHT22;19623;52.482;9.762;2022-12-07T01:41:26;5.30;99.90
33255;DHT22;19623;52.482;9.762;2022-12-07T01:44:15;5.30;99.90
33255;DHT22;19623;52.482;9.762;2022-12-07T01:46:52;5.30;99.90
33255;DHT22;19623;52.482;9.762;2022-12-07T01:49:42;5.30;99.90
33255;DHT22;19623;52.482;9.762;2022-12-07T01:52:20;5.20;99.90
33255;DHT22;19623;52.482;9.762;2022-12-07T01:54:48;5.20;99.90
33255;DHT22;19623;52.482;9.762;2022-12-07T01:57:15;5.20;99.90
33255;DHT22;19623;52.482;9.762;2022-12-07T01:59:43;5.10;99.90
33255;DHT22;19623;52.482;9.762;2022-12-07T02:02:31;5.00;99.90
33255;DHT22;19623;52.482;9.762;2022-12-07T02:04:59;4.90;99.90
33255;DHT22;19623;52.482;9.762;2022-12-07T02:07:27;4.90;99.90
33255;DHT22;19623;52.482;9.762;2022-12-07T02:09:53;4.80;99.90
33255;DHT22;19623;52.482;9.762;2022-12-07T02:12:19;4.80;99.90
33255;DHT22;19623;52.482;9.762;2022-12-07T02:14:46;4.80;99.90
33255;DHT22;19623;52.482;9.762;2022-12-07T02:17:40;4.80;99.90
33255;DHT22;19623;52.482;9.762;2022-12-07T02:27:56;4.70;99.90
33255;DHT22;19623;52.482;9.762;2022-12-07T02:30:29;4.70;99.90
33255;DHT22;19623;52.482;9.762;2022-12-07T02:33:23;4.70;99.90
33255;DHT22;19623;52.482;9.762;2022-12-07T02:35:59;4.70;99.90
33255;DHT22;19623;52.482;9.762;2022-12-07T02:38:27;4.60;99.90
33255;DHT22;19623;52.482;9.762;2022-12-07T02:40:58;4.60;99.90
33255;DHT22;19623;52.482;9.762;2022-12-07T02:43:31;4.50;99.90
33255;DHT22;19623;52.482;9.762;2022-12-07T02:46:10;4.50;99.90
33255;DHT22;19623;52.482;9.762;2022-12-07T02:48:38;4.40;99.90
33255;DHT22;19623;52.482;9.762;2022-12-07T02:51:05;4.40;99.90
33255;DHT22;19623;52.482;9.762;2022-12-07T02:53:33;4.40;99.90
33255;DHT22;19623;52.482;9.762;2022-12-07T02:56:50;4.40;99.90
33255;DHT22;19623;52.482;9.762;2022-12-07T03:02:06;4.40;99.90
33255;DHT22;19623;52.482;9.762;2022-12-07T03:04:38;4.40;99.90
33255;DHT22;19623;52.482;9.762;2022-12-07T03:07:21;4.40;99.90
33255;DHT22;19623;52.482;9.762;2022-12-07T03:12:32;4.30;99.90
33255;DHT22;19623;52.482;9.762;2022-12-07T03:15:13;4.30;99.90
33255;DHT22;19623;52.482;9.762;2022-12-07T03:17:40;4.40;99.90
33255;DHT22;19623;52.482;9.762;2022-12-07T03:20:13;4.40;99.90
33255;DHT22;19623;52.482;9.762;2022-12-07T03:22:40;4.50;99.90
33255;DHT22;19623;52.482;9.762;2022-12-07T03:25:11;4.60;99.90
33255;DHT22;19623;52.482;9.762;2022-12-07T03:27:43;4.70;99.90
33255;DHT22;19623;52.482;9.762;2022-12-07T03:30:29;4.70;99.90
33255;DHT22;19623;52.482;9.762;2022-12-07T03:33:31;4.70;99.90
33255;DHT22;19623;52.482;9.762;2022-12-07T03:36:05;4.70;99.90
33255;DHT22;19623;52.482;9.762;2022-12-07T03:38:42;4.70;99.90
33255;DHT22;19623;52.482;9.762;2022-12-07T03:41:25;4.70;99.90
33255;DHT22;19623;52.482;9.762;2022-12-07T03:43:53;4.70;99.90
33255;DHT22;19623;52.482;9.762;2022-12-07T03:46:49;4.70;99.90
33255;DHT22;19623;52.482;9.762;2022-12-07T03:49:40;4.70;99.90
33255;DHT22;19623;52.482;9.762;2022-12-07T03:52:26;4.60;99.90
33255;DHT22;19623;52.482;9.762;2022-12-07T03:55:16;4.60;99.90
33255;DHT22;19623;52.482;9.762;2022-12-07T03:57:45;4.50;99.90
33255;DHT22;19623;52.482;9.762;2022-12-07T04:00:12;4.40;99.90
33255;DHT22;19623;52.482;9.762;2022-12-07T04:02:39;4.40;99.90
33255;DHT22;19623;52.482;9.762;2022-12-07T04:05:06;4.30;99.90
33255;DHT22;19623;52.482;9.762;2022-12-07T04:07:32;4.30;99.90
33255;DHT22;19623;52.482;9.762;2022-12-07T04:09:58;4.20;99.90
33255;DHT22;19623;52.482;9.762;2022-12-07T04:12:24;4.20;99.90
33255;DHT22;19623;52.482;9.762;2022-12-07T04:14:49;4.20;99.90
33255;DHT22;19623;52.482;9.762;2022-12-07T04:17:15;4.20;99.90
33255;DHT22;19623;52.482;9.762;2022-12-07T04:19:41;4.30;99.90
33255;DHT22;19623;52.482;9.762;2022-12-07T04:22:06;4.30;99.90
33255;DHT22;19623;52.482;9.762;2022-12-07T04:24:33;4.40;99.90
33255;DHT22;19623;52.482;9.762;2022-12-07T04:26:59;4.40;99.90
33255;DHT22;19623;52.482;9.762;2022-12-07T04:29:25;4.40;99.90
33255;DHT22;19623;52.482;9.762;2022-12-07T04:31:51;4.40;99.90
33255;DHT22;19623;52.482;9.762;2022-12-07T04:34:17;4.40;99.90
33255;DHT22;19623;52.482;9.762;2022-12-07T04:36:44;4.50;99.90
33255;DHT22;19623;52.482;9.762;2022-12-07T04:39:26;4.50;99.90
33255;DHT22;19623;52.482;9.762;2022-12-07T04:41:52;4.50;99.90
33255;DHT22;19623;52.482;9.762;2022-12-07T04:44:19;4.50;99.90
33255;DHT22;19623;52.482;9.762;2022-12-07T04:46:45;4.50;99.90
33255;DHT22;19623;52.482;9.762;2022-12-07T04:49:11;4.50;99.90
33255;DHT22;19623;52.482;9.762;2022-12-07T04:51:37;4.60;99.90
33255;DHT22;19623;52.482;9.762;2022-12-07T04:54:03;4.50;99.90
33255;DHT22;19623;52.482;9.762;2022-12-07T04:56:29;4.50;99.90
33255;DHT22;19623;52.482;9.762;2022-12-07T04:58:54;4.60;99.90
33255;DHT22;19623;52.482;9.762;2022-12-07T05:01:21;4.50;99.90
33255;DHT22;19623;52.482;9.762;2022-12-07T05:03:47;4.50;99.90
33255;DHT22;19623;52.482;9.762;2022-12-07T05:06:13;4.50;99.90
33255;DHT22;19623;52.482;9.762;2022-12-07T05:08:39;4.60;99.90
33255;DHT22;19623;52.482;9.762;2022-12-07T05:11:05;4.60;99.90
33255;DHT22;19623;52.482;9.762;2022-12-07T05:13:32;4.60;99.90
33255;DHT22;19623;52.482;9.762;2022-12-07T05:15:58;4.60;99.90
33255;DHT22;19623;52.482;9.762;2022-12-07T05:18:24;4.60;99.90
33255;DHT22;19623;52.482;9.762;2022-12-07T05:20:50;4.60;99.90
33255;DHT22;19623;52.482;9.762;2022-12-07T05:23:16;4.60;99.90
33255;DHT22;19623;52.482;9.762;2022-12-07T05:25:42;4.60;99.90
33255;DHT22;19623;52.482;9.762;2022-12-07T05:28:08;4.60;99.90
33255;DHT22;19623;52.482;9.762;2022-12-07T05:30:34;4.50;99.90
33255;DHT22;19623;52.482;9.762;2022-12-07T05:32:59;4.50;99.90
33255;DHT22;19623;52.482;9.762;2022-12-07T05:35:25;4.50;99.90
33255;DHT22;19623;52.482;9.762;2022-12-07T05:37:51;4.50;99.90
33255;DHT22;19623;52.482;9.762;2022-12-07T05:40:17;4.50;99.90
33255;DHT22;19623;52.482;9.762;2022-12-07T05:42:44;4.50;99.90
33255;DHT22;19623;52.482;9.762;2022-12-07T05:45:11;4.40;99.90
33255;DHT22;19623;52.482;9.762;2022-12-07T05:47:37;4.40;99.90
33255;DHT22;19623;52.482;9.762;2022-12-07T05:50:03;4.30;99.90
33255;DHT22;19623;52.482;9.762;2022-12-07T05:52:29;4.30;99.90
33255;DHT22;19623;52.482;9.762;2022-12-07T05:54:55;4.30;99.90
33255;DHT22;19623;52.482;9.762;2022-12-07T05:57:20;4.40;99.90
33255;DHT22;19623;52.482;9.762;2022-12-07T05:59:46;4.40;99.90
33255;DHT22;19623;52.482;9.762;2022-12-07T06:02:14;4.40;99.90
33255;DHT22;19623;52.482;9.762;2022-12-07T06:04:44;4.40;99.90
33255;DHT22;19623;52.482;9.762;2022-12-07T06:07:11;4.40;99.90
33255;DHT22;19623;52.482;9.762;2022-12-07T06:09:37;4.30;99.90
33255;DHT22;19623;52.482;9.762;2022-12-07T06:12:04;4.30;99.90
33255;DHT22;19623;52.482;9.762;2022-12-07T06:14:48;4.30;99.90
33255;DHT22;19623;52.482;9.762;2022-12-07T06:17:14;4.30;99.90
33255;DHT22;19623;52.482;9.762;2022-12-07T06:19:40;4.30;99.90
33255;DHT22;19623;52.482;9.762;2022-12-07T06:22:07;4.30;99.90
33255;DHT22;19623;52.482;9.762;2022-12-07T06:24:35;4.20;99.90
33255;DHT22;19623;52.482;9.762;2022-12-07T06:27:00;4.20;99.90
33255;DHT22;19623;52.482;9.762;2022-12-07T06:29:26;4.20;99.90
33255;DHT22;19623;52.482;9.762;2022-12-07T06:31:52;4.10;99.90
33255;DHT22;19623;52.482;9.762;2022-12-07T06:34:19;4.10;99.90
33255;DHT22;19623;52.482;9.762;2022-12-07T06:36:46;4.10;99.90
33255;DHT22;19623;52.482;9.762;2022-12-07T06:39:20;4.00;99.90
33255;DHT22;19623;52.482;9.762;2022-12-07T06:41:46;4.00;99.90
33255;DHT22;19623;52.482;9.762;2022-12-07T06:44:12;4.00;99.90
33255;DHT22;19623;52.482;9.762;2022-12-07T06:46:37;4.10;99.90
33255;DHT22;19623;52.482;9.762;2022-12-07T06:49:04;4.10;99.90
33255;DHT22;19623;52.482;9.762;2022-12-07T06:51:31;4.10;99.90
33255;DHT22;19623;52.482;9.762;2022-12-07T06:53:56;4.00;99.90
33255;DHT22;19623;52.482;9.762;2022-12-07T06:56:22;4.00;99.90
33255;DHT22;19623;52.482;9.762;2022-12-07T06:58:48;3.90;99.90
33255;DHT22;19623;52.482;9.762;2022-12-07T07:01:16;3.80;99.90
33255;DHT22;19623;52.482;9.762;2022-12-07T07:03:43;3.80;99.90
33255;DHT22;19623;52.482;9.762;2022-12-07T07:06:09;3.70;99.90
33255;DHT22;19623;52.482;9.762;2022-12-07T07:08:36;3.60;99.90
33255;DHT22;19623;52.482;9.762;2022-12-07T07:11:02;3.60;99.90
33255;DHT22;19623;52.482;9.762;2022-12-07T07:13:27;3.60;99.90
33255;DHT22;19623;52.482;9.762;2022-12-07T07:15:53;3.70;99.90
33255;DHT22;19623;52.482;9.762;2022-12-07T07:18:19;3.70;99.90
33255;DHT22;19623;52.482;9.762;2022-12-07T07:20:45;3.80;99.90
33255;DHT22;19623;52.482;9.762;2022-12-07T07:23:12;3.80;99.90
33255;DHT22;19623;52.482;9.762;2022-12-07T07:25:38;3.90;99.90
33255;DHT22;19623;52.482;9.762;2022-12-07T07:28:04;3.90;99.90
33255;DHT22;19623;52.482;9.762;2022-12-07T07:30:30;3.90;99.90
33255;DHT22;19623;52.482;9.762;2022-12-07T07:33:02;3.90;99.90
33255;DHT22;19623;52.482;9.762;2022-12-07T07:35:29;3.90;99.90
33255;DHT22;19623;52.482;9.762;2022-12-07T07:37:55;4.00;99.90
33255;DHT22;19623;52.482;9.762;2022-12-07T07:40:21;4.00;99.90
33255;DHT22;19623;52.482;9.762;2022-12-07T07:42:48;4.00;99.90
33255;DHT22;19623;52.482;9.762;2022-12-07T07:45:14;4.00;99.90
33255;DHT22;19623;52.482;9.762;2022-12-07T07:47:40;4.00;99.90
33255;DHT22;19623;52.482;9.762;2022-12-07T07:50:06;4.00;99.90
33255;DHT22;19623;52.482;9.762;2022-12-07T07:52:32;4.00;99.90
33255;DHT22;19623;52.482;9.762;2022-12-07T07:54:58;4.00;99.90
33255;DHT22;19623;52.482;9.762;2022-12-07T07:57:23;4.10;99.90
33255;DHT22;19623;52.482;9.762;2022-12-07T07:59:49;4.10;99.90
33255;DHT22;19623;52.482;9.762;2022-12-07T08:02:17;4.10;99.90
33255;DHT22;19623;52.482;9.762;2022-12-07T08:04:44;4.10;99.90
33255;DHT22;19623;52.482;9.762;2022-12-07T08:07:11;4.10;99.90
33255;DHT22;19623;52.482;9.762;2022-12-07T08:09:38;4.20;99.90
33255;DHT22;19623;52.482;9.762;2022-12-07T08:12:04;4.20;99.90
33255;DHT22;19623;52.482;9.762;2022-12-07T08:14:30;4.20;99.90
33255;DHT22;19623;52.482;9.762;2022-12-07T08:16:55;4.20;99.90
33255;DHT22;19623;52.482;9.762;2022-12-07T08:19:21;4.30;99.90
33255;DHT22;19623;52.482;9.762;2022-12-07T08:21:47;4.30;99.90
33255;DHT22;19623;52.482;9.762;2022-12-07T08:24:13;4.20;99.90
33255;DHT22;19623;52.482;9.762;2022-12-07T08:26:39;4.20;99.90
33255;DHT22;19623;52.482;9.762;2022-12-07T08:29:04;4.30;99.90
33255;DHT22;19623;52.482;9.762;2022-12-07T08:31:30;4.40;99.90
33255;DHT22;19623;52.482;9.762;2022-12-07T08:33:56;4.40;99.90
33255;DHT22;19623;52.482;9.762;2022-12-07T08:36:22;4.40;99.90
33255;DHT22;19623;52.482;9.762;2022-12-07T08:38:48;4.40;99.90
33255;DHT22;19623;52.482;9.762;2022-12-07T08:41:14;4.50;99.90
33255;DHT22;19623;52.482;9.762;2022-12-07T08:43:40;4.40;99.90
33255;DHT22;19623;52.482;9.762;2022-12-07T08:48:50;4.50;99.90
33255;DHT22;19623;52.482;9.762;2022-12-07T08:51:19;4.50;99.90
33255;DHT22;19623;52.482;9.762;2022-12-07T08:53:45;4.50;99.90
33255;DHT22;19623;52.482;9.762;2022-12-07T08:56:11;4.50;99.90
33255;DHT22;19623;52.482;9.762;2022-12-07T08:58:38;4.50;99.90
33255;DHT22;19623;52.482;9.762;2022-12-07T09:01:04;4.60;99.90
33255;DHT22;19623;52.482;9.762;2022-12-07T09:03:31;4.60;99.90
33255;DHT22;19623;52.482;9.762;2022-12-07T09:05:57;4.60;99.90
33255;DHT22;19623;52.482;9.762;2022-12-07T09:08:26;4.60;99.90
33255;DHT22;19623;52.482;9.762;2022-12-07T09:10:54;4.60;99.90
33255;DHT22;19623;52.482;9.762;2022-12-07T09:13:20;4.60;99.90
33255;DHT22;19623;52.482;9.762;2022-12-07T09:15:45;4.60;99.90
33255;DHT22;19623;52.482;9.762;2022-12-07T09:18:11;4.60;99.90
33255;DHT22;19623;52.482;9.762;2022-12-07T09:20:37;4.60;99.90
33255;DHT22;19623;52.482;9.762;2022-12-07T09:23:05;4.70;99.90
33255;DHT22;19623;52.482;9.762;2022-12-07T09:25:32;4.70;99.90
33255;DHT22;19623;52.482;9.762;2022-12-07T09:27:58;4.70;99.90
33255;DHT22;19623;52.482;9.762;2022-12-07T09:30:25;4.80;99.90
33255;DHT22;19623;52.482;9.762;2022-12-07T09:32:54;4.70;99.90
33255;DHT22;19623;52.482;9.762;2022-12-07T09:35:20;4.70;99.90
33255;DHT22;19623;52.482;9.762;2022-12-07T09:37:45;4.60;99.90
33255;DHT22;19623;52.482;9.762;2022-12-07T09:40:12;4.60;99.90
33255;DHT22;19623;52.482;9.762;2022-12-07T09:42:41;4.60;99.90
33255;DHT22;19623;52.482;9.762;2022-12-07T09:45:16;4.60;99.90
33255;DHT22;19623;52.482;9.762;2022-12-07T09:47:42;4.60;99.90
33255;DHT22;19623;52.482;9.762;2022-12-07T09:50:26;4.60;99.90
33255;DHT22;19623;52.482;9.762;2022-12-07T09:52:53;4.60;99.90
33255;DHT22;19623;52.482;9.762;2022-12-07T09:55:27;4.70;99.90
33255;DHT22;19623;52.482;9.762;2022-12-07T09:57:53;4.80;99.90
33255;DHT22;19623;52.482;9.762;2022-12-07T10:00:22;4.90;99.90
33255;DHT22;19623;52.482;9.762;2022-12-07T10:02:59;5.00;99.90
33255;DHT22;19623;52.482;9.762;2022-12-07T10:05:38;5.00;99.90
33255;DHT22;19623;52.482;9.762;2022-12-07T10:08:05;5.20;99.90
33255;DHT22;19623;52.482;9.762;2022-12-07T10:10:32;5.30;99.90
33255;DHT22;19623;52.482;9.762;2022-12-07T10:13:03;5.20;99.90
33255;DHT22;19623;52.482;9.762;2022-12-07T10:18:34;5.30;99.90
33255;DHT22;19623;52.482;9.762;2022-12-07T10:21:10;5.30;99.90
33255;DHT22;19623;52.482;9.762;2022-12-07T10:23:38;5.40;99.90
33255;DHT22;19623;52.482;9.762;2022-12-07T10:29:15;5.40;99.90
33255;DHT22;19623;52.482;9.762;2022-12-07T10:31:44;5.30;99.90
33255;DHT22;19623;52.482;9.762;2022-12-07T10:36:50;5.40;99.90
33255;DHT22;19623;52.482;9.762;2022-12-07T10:39:18;5.40;99.90
33255;DHT22;19623;52.482;9.762;2022-12-07T10:44:24;5.40;99.90
33255;DHT22;19623;52.482;9.762;2022-12-07T11:06:20;5.30;99.90
33255;DHT22;19623;52.482;9.762;2022-12-07T11:14:56;5.40;99.90
33255;DHT22;19623;52.482;9.762;2022-12-07T11:18:22;5.40;99.90
33255;DHT22;19623;52.482;9.762;2022-12-07T11:23:48;5.30;99.90
33255;DHT22;19623;52.482;9.762;2022-12-07T11:36:57;5.30;99.90
33255;DHT22;19623;52.482;9.762;2022-12-07T11:39:28;5.30;99.90
33255;DHT22;19623;52.482;9.762;2022-12-07T11:42:24;5.40;99.90
33255;DHT22;19623;52.482;9.762;2022-12-07T11:45:00;5.30;99.90
33255;DHT22;19623;52.482;9.762;2022-12-07T11:47:46;5.30;99.90
33255;DHT22;19623;52.482;9.762;2022-12-07T11:50:34;5.40;99.90
33255;DHT22;19623;52.482;9.762;2022-12-07T11:55:50;5.50;99.90
33255;DHT22;19623;52.482;9.762;2022-12-07T12:06:24;5.70;99.90
33255;DHT22;19623;52.482;9.762;2022-12-07T12:09:18;5.70;99.90
33255;DHT22;19623;52.482;9.762;2022-12-07T12:12:13;5.60;99.90
33255;DHT22;19623;52.482;9.762;2022-12-07T12:22:44;5.50;99.90
33255;DHT22;19623;52.482;9.762;2022-12-07T12:25:36;5.50;99.90
33255;DHT22;19623;52.482;9.762;2022-12-07T12:28:03;5.60;99.90
33255;DHT22;19623;52.482;9.762;2022-12-07T12:30:36;5.70;99.90
33255;DHT22;19623;52.482;9.762;2022-12-07T12:33:28;5.70;99.90
33255;DHT22;19623;52.482;9.762;2022-12-07T12:46:54;5.70;99.90
33255;DHT22;19623;52.482;9.762;2022-12-07T12:51:50;5.70;99.90
33255;DHT22;19623;52.482;9.762;2022-12-07T12:59:38;5.60;99.90
33255;DHT22;19623;52.482;9.762;2022-12-07T13:02:16;5.60;99.90
33255;DHT22;19623;52.482;9.762;2022-12-07T13:04:53;5.70;99.90
33255;DHT22;19623;52.482;9.762;2022-12-07T13:15:50;5.80;99.90
33255;DHT22;19623;52.482;9.762;2022-12-07T13:23:33;5.80;99.90
33255;DHT22;19623;52.482;9.762;2022-12-07T13:28:49;5.70;99.90
33255;DHT22;19623;52.482;9.762;2022-12-07T13:31:40;5.60;99.90
33255;DHT22;19623;52.482;9.762;2022-12-07T13:36:54;5.50;99.90
33255;DHT22;19623;52.482;9.762;2022-12-07T13:39:23;5.50;99.90
33255;DHT22;19623;52.482;9.762;2022-12-07T13:41:54;5.50;99.90
33255;DHT22;19623;52.482;9.762;2022-12-07T13:44:23;5.60;99.90
33255;DHT22;19623;52.482;9.762;2022-12-07T13:47:11;5.50;99.90
33255;DHT22;19623;52.482;9.762;2022-12-07T13:49:47;5.50;99.90
33255;DHT22;19623;52.482;9.762;2022-12-07T13:52:18;5.50;99.90
33255;DHT22;19623;52.482;9.762;2022-12-07T13:55:28;5.40;99.90
33255;DHT22;19623;52.482;9.762;2022-12-07T13:57:35;5.40;99.90
33255;DHT22;19623;52.482;9.762;2022-12-07T14:00:04;5.30;99.90
33255;DHT22;19623;52.482;9.762;2022-12-07T14:02:33;5.20;99.90
33255;DHT22;19623;52.482;9.762;2022-12-07T14:05:27;5.20;99.90
33255;DHT22;19623;52.482;9.762;2022-12-07T14:08:00;5.10;99.90
33255;DHT22;19623;52.482;9.762;2022-12-07T14:10:32;5.10;99.90
33255;DHT22;19623;52.482;9.762;2022-12-07T14:13:03;5.10;99.90
33255;DHT22;19623;52.482;9.762;2022-12-07T14:15:33;5.00;99.90
33255;DHT22;19623;52.482;9.762;2022-12-07T14:18:00;5.00;99.90
33255;DHT22;19623;52.482;9.762;2022-12-07T14:20:36;5.10;99.90
33255;DHT22;19623;52.482;9.762;2022-12-07T14:23:04;5.10;99.90
33255;DHT22;19623;52.482;9.762;2022-12-07T14:25:50;5.10;99.90
33255;DHT22;19623;52.482;9.762;2022-12-07T14:28:36;5.10;99.90
33255;DHT22;19623;52.482;9.762;2022-12-07T14:31:02;5.10;99.90
33255;DHT22;19623;52.482;9.762;2022-12-07T14:33:29;5.00;99.90
33255;DHT22;19623;52.482;9.762;2022-12-07T14:35:55;4.90;99.90
33255;DHT22;19623;52.482;9.762;2022-12-07T14:38:23;4.90;99.90
33255;DHT22;19623;52.482;9.762;2022-12-07T14:40:50;4.90;99.90
33255;DHT22;19623;52.482;9.762;2022-12-07T14:43:17;4.90;99.90
33255;DHT22;19623;52.482;9.762;2022-12-07T14:45:43;4.90;99.90
33255;DHT22;19623;52.482;9.762;2022-12-07T14:48:15;4.90;99.90
33255;DHT22;19623;52.482;9.762;2022-12-07T14:50:49;4.90;99.90
33255;DHT22;19623;52.482;9.762;2022-12-07T14:53:16;4.90;99.90
33255;DHT22;19623;52.482;9.762;2022-12-07T14:55:43;4.90;99.90
33255;DHT22;19623;52.482;9.762;2022-12-07T14:58:16;4.80;99.90
33255;DHT22;19623;52.482;9.762;2022-12-07T15:00:42;4.80;99.90
33255;DHT22;19623;52.482;9.762;2022-12-07T15:03:08;4.80;99.90
33255;DHT22;19623;52.482;9.762;2022-12-07T15:05:34;4.80;99.90
33255;DHT22;19623;52.482;9.762;2022-12-07T15:08:00;4.90;99.90
33255;DHT22;19623;52.482;9.762;2022-12-07T15:10:29;4.80;99.90
33255;DHT22;19623;52.482;9.762;2022-12-07T15:13:00;4.90;99.90
33255;DHT22;19623;52.482;9.762;2022-12-07T15:15:47;4.90;99.90
33255;DHT22;19623;52.482;9.762;2022-12-07T15:18:14;4.80;99.90
33255;DHT22;19623;52.482;9.762;2022-12-07T15:20:41;4.80;99.90
33255;DHT22;19623;52.482;9.762;2022-12-07T15:23:06;4.70;99.90
33255;DHT22;19623;52.482;9.762;2022-12-07T15:25:32;4.60;99.90
33255;DHT22;19623;52.482;9.762;2022-12-07T15:27:58;4.60;99.90
33255;DHT22;19623;52.482;9.762;2022-12-07T15:30:23;4.60;99.90
33255;DHT22;19623;52.482;9.762;2022-12-07T15:32:50;4.60;99.90
33255;DHT22;19623;52.482;9.762;2022-12-07T15:35:16;4.60;99.90
33255;DHT22;19623;52.482;9.762;2022-12-07T15:37:43;4.60;99.90
33255;DHT22;19623;52.482;9.762;2022-12-07T15:40:11;4.50;99.90
33255;DHT22;19623;52.482;9.762;2022-12-07T15:42:37;4.40;99.90
33255;DHT22;19623;52.482;9.762;2022-12-07T15:45:04;4.30;99.90
33255;DHT22;19623;52.482;9.762;2022-12-07T15:47:39;4.40;99.90
33255;DHT22;19623;52.482;9.762;2022-12-07T15:50:07;4.50;99.90
33255;DHT22;19623;52.482;9.762;2022-12-07T15:52:33;4.70;99.90
33255;DHT22;19623;52.482;9.762;2022-12-07T15:54:59;4.70;99.90
33255;DHT22;19623;52.482;9.762;2022-12-07T15:57:26;4.70;99.90
33255;DHT22;19623;52.482;9.762;2022-12-07T15:59:52;4.80;99.90
33255;DHT22;19623;52.482;9.762;2022-12-07T16:02:18;4.90;99.90
33255;DHT22;19623;52.482;9.762;2022-12-07T16:04:44;4.80;99.90
33255;DHT22;19623;52.482;9.762;2022-12-07T16:07:11;4.60;99.90
33255;DHT22;19623;52.482;9.762;2022-12-07T16:09:37;4.50;99.90
33255;DHT22;19623;52.482;9.762;2022-12-07T16:12:04;4.30;99.90
33255;DHT22;19623;52.482;9.762;2022-12-07T16:14:29;4.10;99.90
33255;DHT22;19623;52.482;9.762;2022-12-07T16:16:57;4.00;99.90
33255;DHT22;19623;52.482;9.762;2022-12-07T16:19:23;3.90;99.90
33255;DHT22;19623;52.482;9.762;2022-12-07T16:21:48;3.90;99.90
33255;DHT22;19623;52.482;9.762;2022-12-07T16:24:14;3.90;99.90
33255;DHT22;19623;52.482;9.762;2022-12-07T16:26:40;3.80;99.90
33255;DHT22;19623;52.482;9.762;2022-12-07T16:29:06;3.80;99.90
33255;DHT22;19623;52.482;9.762;2022-12-07T16:31:32;3.80;99.90
33255;DHT22;19623;52.482;9.762;2022-12-07T16:33:59;3.80;99.90
33255;DHT22;19623;52.482;9.762;2022-12-07T16:36:25;3.90;99.90
33255;DHT22;19623;52.482;9.762;2022-12-07T16:38:52;3.90;99.90
33255;DHT22;19623;52.482;9.762;2022-12-07T16:41:18;3.80;99.90
33255;DHT22;19623;52.482;9.762;2022-12-07T16:43:43;3.60;99.90
33255;DHT22;19623;52.482;9.762;2022-12-07T16:46:09;3.50;99.90
33255;DHT22;19623;52.482;9.762;2022-12-07T16:48:38;3.40;99.90
33255;DHT22;19623;52.482;9.762;2022-12-07T16:51:05;3.40;99.90
33255;DHT22;19623;52.482;9.762;2022-12-07T16:53:31;3.40;99.90
33255;DHT22;19623;52.482;9.762;2022-12-07T16:55:57;3.30;99.90
33255;DHT22;19623;52.482;9.762;2022-12-07T16:58:23;3.30;99.90
33255;DHT22;19623;52.482;9.762;2022-12-07T17:00:50;3.40;99.90
33255;DHT22;19623;52.482;9.762;2022-12-07T17:03:15;3.50;99.90
33255;DHT22;19623;52.482;9.762;2022-12-07T17:05:43;3.40;99.90
33255;DHT22;19623;52.482;9.762;2022-12-07T17:08:10;3.50;99.90
33255;DHT22;19623;52.482;9.762;2022-12-07T17:10:37;3.40;99.90
33255;DHT22;19623;52.482;9.762;2022-12-07T17:13:05;3.40;99.90
33255;DHT22;19623;52.482;9.762;2022-12-07T17:16:01;3.20;99.90
33255;DHT22;19623;52.482;9.762;2022-12-07T17:18:29;3.30;99.90
33255;DHT22;19623;52.482;9.762;2022-12-07T17:20:54;3.30;99.90
33255;DHT22;19623;52.482;9.762;2022-12-07T17:23:20;3.30;99.90
33255;DHT22;19623;52.482;9.762;2022-12-07T17:25:46;3.30;99.90
33255;DHT22;19623;52.482;9.762;2022-12-07T17:28:12;3.30;99.90
33255;DHT22;19623;52.482;9.762;2022-12-07T17:30:38;3.30;99.90
33255;DHT22;19623;52.482;9.762;2022-12-07T17:33:04;3.20;99.90
33255;DHT22;19623;52.482;9.762;2022-12-07T17:35:30;3.20;99.90
33255;DHT22;19623;52.482;9.762;2022-12-07T17:37:55;3.10;99.90
33255;DHT22;19623;52.482;9.762;2022-12-07T17:40:21;3.20;99.90
33255;DHT22;19623;52.482;9.762;2022-12-07T17:42:47;3.10;99.90
33255;DHT22;19623;52.482;9.762;2022-12-07T17:45:16;3.10;99.90
33255;DHT22;19623;52.482;9.762;2022-12-07T17:47:42;3.10;99.90
33255;DHT22;19623;52.482;9.762;2022-12-07T17:50:08;3.00;99.90
33255;DHT22;19623;52.482;9.762;2022-12-07T17:52:37;3.00;99.90
33255;DHT22;19623;52.482;9.762;2022-12-07T17:55:22;3.00;99.90
33255;DHT22;19623;52.482;9.762;2022-12-07T17:57:47;3.00;99.90
33255;DHT22;19623;52.482;9.762;2022-12-07T18:00:14;3.00;99.90
33255;DHT22;19623;52.482;9.762;2022-12-07T18:02:39;3.00;99.90